sensor_id;sensor_type;location;lat;lon;timestamp;temperature;humidity
20714;DHT22;10518;50.742;4.226;2023-07-22T00:00:30;15.90;99.90
20714;DHT22;10518;50.742;4.226;2023-07-22T00:02:56;15.90;99.90
20714;DHT22;10518;50.742;4.226;2023-07-22T00:05:21;15.90;99.90
20714;DHT22;10518;50.742;4.226;2023-07-22T00:07:49;15.80;99.90
20714;DHT22;10518;50.742;4.226;2023-07-22T00:10:16;15.90;99.90
20714;DHT22;10518;50.742;4.226;2023-07-22T00:12:41;16.10;99.90
20714;DHT22;10518;50.742;4.226;2023-07-22T00:15:07;15.90;99.90
20714;DHT22;10518;50.742;4.226;2023-07-22T00:17:33;16.00;99.90
20714;DHT22;10518;50.742;4.226;2023-07-22T00:19:59;16.00;99.90
20714;DHT22;10518;50.742;4.226;2023-07-22T00:22:25;15.80;99.90
20714;DHT22;10518;50.742;4.226;2023-07-22T00:24:52;15.80;99.90
20714;DHT22;10518;50.742;4.226;2023-07-22T00:27:18;15.70;99.90
20714;DHT22;10518;50.742;4.226;2023-07-22T00:29:43;15.60;99.90
20714;DHT22;10518;50.742;4.226;2023-07-22T00:32:09;15.70;99.90
20714;DHT22;10518;50.742;4.226;2023-07-22T00:34:35;15.80;99.90
20714;DHT22;10518;50.742;4.226;2023-07-22T00:37:02;15.70;99.90
20714;DHT22;10518;50.742;4.226;2023-07-22T00:39:28;15.80;99.90
20714;DHT22;10518;50.742;4.226;2023-07-22T00:41:53;16.10;99.90
20714;DHT22;10518;50.742;4.226;2023-07-22T00:44:19;16.00;99.90
20714;DHT22;10518;50.742;4.226;2023-07-22T00:46:45;15.90;99.90
20714;DHT22;10518;50.742;4.226;2023-07-22T00:49:12;15.70;99.90
20714;DHT22;10518;50.742;4.226;2023-07-22T00:51:39;15.60;99.90
20714;DHT22;10518;50.742;4.226;2023-07-22T00:54:05;15.50;99.90
20714;DHT22;10518;50.742;4.226;2023-07-22T00:56:36;15.40;99.90
20714;DHT22;10518;50.742;4.226;2023-07-22T00:59:01;15.40;99.90
20714;DHT22;10518;50.742;4.226;2023-07-22T01:01:27;15.30;99.90
20714;DHT22;10518;50.742;4.226;2023-07-22T01:03:53;15.30;99.90
20714;DHT22;10518;50.742;4.226;2023-07-22T01:06:20;15.30;99.90
20714;DHT22;10518;50.742;4.226;2023-07-22T01:08:45;15.30;99.90
20714;DHT22;10518;50.742;4.226;2023-07-22T01:11:12;15.20;99.90
20714;DHT22;10518;50.742;4.226;2023-07-22T01:13:38;15.20;99.90
20714;DHT22;10518;50.742;4.226;2023-07-22T01:16:05;15.20;99.90
20714;DHT22;10518;50.742;4.226;2023-07-22T01:18:33;15.30;99.90
20714;DHT22;10518;50.742;4.226;2023-07-22T01:20:59;15.40;99.90
20714;DHT22;10518;50.742;4.226;2023-07-22T01:23:24;15.50;99.90
20714;DHT22;10518;50.742;4.226;2023-07-22T01:25:50;15.50;99.90
20714;DHT22;10518;50.742;4.226;2023-07-22T01:28:16;15.30;99.90
20714;DHT22;10518;50.742;4.226;2023-07-22T01:30:42;15.30;99.90
20714;DHT22;10518;50.742;4.226;2023-07-22T01:33:08;15.40;99.90
20714;DHT22;10518;50.742;4.226;2023-07-22T01:35:33;15.30;99.90
20714;DHT22;10518;50.742;4.226;2023-07-22T01:37:59;15.30;99.90
20714;DHT22;10518;50.742;4.226;2023-07-22T01:40:25;15.20;99.90
20714;DHT22;10518;50.742;4.226;2023-07-22T01:42:51;15.00;99.90
20714;DHT22;10518;50.742;4.226;2023-07-22T01:45:16;15.00;99.90
20714;DHT22;10518;50.742;4.226;2023-07-22T01:47:42;15.10;99.90
20714;DHT22;10518;50.742;4.226;2023-07-22T01:50:08;15.00;99.90
20714;DHT22;10518;50.742;4.226;2023-07-22T01:52:34;15.20;99.90
20714;DHT22;10518;50.742;4.226;2023-07-22T01:55:00;15.00;99.90
20714;DHT22;10518;50.742;4.226;2023-07-22T01:57:26;15.00;99.90
20714;DHT22;10518;50.742;4.226;2023-07-22T01:59:52;15.00;99.90
20714;DHT22;10518;50.742;4.226;2023-07-22T02:02:18;14.90;99.90
20714;DHT22;10518;50.742;4.226;2023-07-22T02:04:44;14.80;99.90
20714;DHT22;10518;50.742;4.226;2023-07-22T02:07:09;14.80;99.90
20714;DHT22;10518;50.742;4.226;2023-07-22T02:09:35;14.80;99.90
20714;DHT22;10518;50.742;4.226;2023-07-22T02:12:01;14.90;99.90
20714;DHT22;10518;50.742;4.226;2023-07-22T02:14:27;14.80;99.90
20714;DHT22;10518;50.742;4.226;2023-07-22T02:16:52;15.00;99.90
20714;DHT22;10518;50.742;4.226;2023-07-22T02:19:18;14.90;99.90
20714;DHT22;10518;50.742;4.226;2023-07-22T02:21:43;15.00;99.90
20714;DHT22;10518;50.742;4.226;2023-07-22T02:24:10;14.90;99.90
20714;DHT22;10518;50.742;4.226;2023-07-22T02:26:36;14.90;99.90
20714;DHT22;10518;50.742;4.226;2023-07-22T02:29:02;14.80;99.90
20714;DHT22;10518;50.742;4.226;2023-07-22T02:31:28;14.80;99.90
20714;DHT22;10518;50.742;4.226;2023-07-22T02:33:53;14.80;99.90
20714;DHT22;10518;50.742;4.226;2023-07-22T02:36:19;14.90;99.90
20714;DHT22;10518;50.742;4.226;2023-07-22T02:38:44;14.70;99.90
20714;DHT22;10518;50.742;4.226;2023-07-22T02:41:10;14.70;99.90
20714;DHT22;10518;50.742;4.226;2023-07-22T02:43:36;14.60;99.90
20714;DHT22;10518;50.742;4.226;2023-07-22T02:46:02;14.60;99.90
20714;DHT22;10518;50.742;4.226;2023-07-22T02:48:29;14.50;99.90
20714;DHT22;10518;50.742;4.226;2023-07-22T02:51:05;14.50;99.90
20714;DHT22;10518;50.742;4.226;2023-07-22T02:53:32;14.50;99.90
20714;DHT22;10518;50.742;4.226;2023-07-22T02:55:58;14.50;99.90
20714;DHT22;10518;50.742;4.226;2023-07-22T02:58:24;14.80;99.90
20714;DHT22;10518;50.742;4.226;2023-07-22T03:00:50;14.70;99.90
20714;DHT22;10518;50.742;4.226;2023-07-22T03:03:15;14.80;99.90
20714;DHT22;10518;50.742;4.226;2023-07-22T03:05:41;14.70;99.90
20714;DHT22;10518;50.742;4.226;2023-07-22T03:08:06;14.60;99.90
20714;DHT22;10518;50.742;4.226;2023-07-22T03:10:32;14.60;99.90
20714;DHT22;10518;50.742;4.226;2023-07-22T03:12:58;14.60;99.90
20714;DHT22;10518;50.742;4.226;2023-07-22T03:15:25;14.60;99.90
20714;DHT22;10518;50.742;4.226;2023-07-22T03:17:54;14.50;99.90
20714;DHT22;10518;50.742;4.226;2023-07-22T03:20:21;14.50;99.90
20714;DHT22;10518;50.742;4.226;2023-07-22T03:22:48;14.50;99.90
20714;DHT22;10518;50.742;4.226;2023-07-22T03:25:16;14.50;99.90
20714;DHT22;10518;50.742;4.226;2023-07-22T03:27:45;14.70;99.90
20714;DHT22;10518;50.742;4.226;2023-07-22T03:30:17;14.70;99.90
20714;DHT22;10518;50.742;4.226;2023-07-22T03:32:44;14.80;99.90
20714;DHT22;10518;50.742;4.226;2023-07-22T03:35:10;14.80;99.90
20714;DHT22;10518;50.742;4.226;2023-07-22T03:37:38;14.90;99.90
20714;DHT22;10518;50.742;4.226;2023-07-22T03:40:05;14.90;99.90
20714;DHT22;10518;50.742;4.226;2023-07-22T03:42:43;15.00;99.90
20714;DHT22;10518;50.742;4.226;2023-07-22T03:45:09;14.90;99.90
20714;DHT22;10518;50.742;4.226;2023-07-22T03:47:39;14.80;99.90
20714;DHT22;10518;50.742;4.226;2023-07-22T03:50:05;14.80;99.90
20714;DHT22;10518;50.742;4.226;2023-07-22T03:52:31;14.80;99.90
20714;DHT22;10518;50.742;4.226;2023-07-22T03:54:56;14.80;99.90
20714;DHT22;10518;50.742;4.226;2023-07-22T03:57:28;15.00;99.90
20714;DHT22;10518;50.742;4.226;2023-07-22T03:59:55;14.90;99.90
20714;DHT22;10518;50.742;4.226;2023-07-22T04:02:20;14.90;99.90
20714;DHT22;10518;50.742;4.226;2023-07-22T04:04:46;14.80;99.90
20714;DHT22;10518;50.742;4.226;2023-07-22T04:07:12;14.80;99.90
20714;DHT22;10518;50.742;4.226;2023-07-22T04:09:37;14.80;99.90
20714;DHT22;10518;50.742;4.226;2023-07-22T04:12:04;14.80;99.90
20714;DHT22;10518;50.742;4.226;2023-07-22T04:14:30;14.80;99.90
20714;DHT22;10518;50.742;4.226;2023-07-22T04:16:55;14.90;99.90
20714;DHT22;10518;50.742;4.226;2023-07-22T04:19:21;14.80;99.90
20714;DHT22;10518;50.742;4.226;2023-07-22T04:21:47;14.90;99.90
20714;DHT22;10518;50.742;4.226;2023-07-22T04:24:12;14.90;99.90
20714;DHT22;10518;50.742;4.226;2023-07-22T04:26:38;15.00;99.90
20714;DHT22;10518;50.742;4.226;2023-07-22T04:29:03;15.00;99.90
20714;DHT22;10518;50.742;4.226;2023-07-22T04:31:29;15.00;99.90
20714;DHT22;10518;50.742;4.226;2023-07-22T04:33:54;14.90;99.90
20714;DHT22;10518;50.742;4.226;2023-07-22T04:36:20;15.00;99.90
20714;DHT22;10518;50.742;4.226;2023-07-22T04:38:45;14.90;99.90
20714;DHT22;10518;50.742;4.226;2023-07-22T04:41:11;14.90;99.90
20714;DHT22;10518;50.742;4.226;2023-07-22T04:43:36;14.90;99.90
20714;DHT22;10518;50.742;4.226;2023-07-22T04:46:02;14.90;99.90
20714;DHT22;10518;50.742;4.226;2023-07-22T04:48:29;14.90;99.90
20714;DHT22;10518;50.742;4.226;2023-07-22T04:50:55;15.00;99.90
20714;DHT22;10518;50.742;4.226;2023-07-22T04:53:21;15.10;99.90
20714;DHT22;10518;50.742;4.226;2023-07-22T04:55:47;15.30;99.90
20714;DHT22;10518;50.742;4.226;2023-07-22T04:58:12;15.40;99.90
20714;DHT22;10518;50.742;4.226;2023-07-22T05:00:38;15.50;99.90
20714;DHT22;10518;50.742;4.226;2023-07-22T05:03:04;15.40;99.90
20714;DHT22;10518;50.742;4.226;2023-07-22T05:05:30;15.30;99.90
20714;DHT22;10518;50.742;4.226;2023-07-22T05:07:55;15.40;99.90
20714;DHT22;10518;50.742;4.226;2023-07-22T05:10:22;15.40;99.90
20714;DHT22;10518;50.742;4.226;2023-07-22T05:12:47;15.60;99.90
20714;DHT22;10518;50.742;4.226;2023-07-22T05:15:13;15.70;99.90
20714;DHT22;10518;50.742;4.226;2023-07-22T05:17:39;15.60;99.90
20714;DHT22;10518;50.742;4.226;2023-07-22T05:20:05;15.70;99.90
20714;DHT22;10518;50.742;4.226;2023-07-22T05:22:32;15.70;99.90
20714;DHT22;10518;50.742;4.226;2023-07-22T05:24:58;15.80;99.90
20714;DHT22;10518;50.742;4.226;2023-07-22T05:27:24;16.00;99.90
20714;DHT22;10518;50.742;4.226;2023-07-22T05:29:50;16.20;99.90
20714;DHT22;10518;50.742;4.226;2023-07-22T05:32:15;16.50;99.90
20714;DHT22;10518;50.742;4.226;2023-07-22T05:34:41;16.80;99.90
20714;DHT22;10518;50.742;4.226;2023-07-22T05:37:07;17.10;99.90
20714;DHT22;10518;50.742;4.226;2023-07-22T05:39:32;17.40;99.90
20714;DHT22;10518;50.742;4.226;2023-07-22T05:41:58;17.50;99.90
20714;DHT22;10518;50.742;4.226;2023-07-22T05:44:23;17.50;99.90
20714;DHT22;10518;50.742;4.226;2023-07-22T05:46:49;17.60;99.90
20714;DHT22;10518;50.742;4.226;2023-07-22T05:49:14;17.50;99.90
20714;DHT22;10518;50.742;4.226;2023-07-22T05:51:40;17.40;99.90
20714;DHT22;10518;50.742;4.226;2023-07-22T05:54:06;17.50;99.90
20714;DHT22;10518;50.742;4.226;2023-07-22T05:56:31;17.50;99.90
20714;DHT22;10518;50.742;4.226;2023-07-22T05:58:57;17.40;99.90
20714;DHT22;10518;50.742;4.226;2023-07-22T06:01:25;17.40;99.90
20714;DHT22;10518;50.742;4.226;2023-07-22T06:03:51;17.70;99.90
20714;DHT22;10518;50.742;4.226;2023-07-22T06:06:17;17.50;99.90
20714;DHT22;10518;50.742;4.226;2023-07-22T06:08:42;17.60;99.90
20714;DHT22;10518;50.742;4.226;2023-07-22T06:11:08;17.60;99.90
20714;DHT22;10518;50.742;4.226;2023-07-22T06:13:33;17.50;99.90
20714;DHT22;10518;50.742;4.226;2023-07-22T06:15:59;17.80;99.90
20714;DHT22;10518;50.742;4.226;2023-07-22T06:18:25;18.00;99.90
20714;DHT22;10518;50.742;4.226;2023-07-22T06:20:50;18.00;99.90
20714;DHT22;10518;50.742;4.226;2023-07-22T06:23:16;17.80;99.90
20714;DHT22;10518;50.742;4.226;2023-07-22T06:25:42;17.60;99.90
20714;DHT22;10518;50.742;4.226;2023-07-22T06:28:08;17.70;99.90
20714;DHT22;10518;50.742;4.226;2023-07-22T06:30:34;17.60;99.90
20714;DHT22;10518;50.742;4.226;2023-07-22T06:32:59;17.80;99.90
20714;DHT22;10518;50.742;4.226;2023-07-22T06:35:25;18.00;99.90
20714;DHT22;10518;50.742;4.226;2023-07-22T06:37:50;18.10;99.90
20714;DHT22;10518;50.742;4.226;2023-07-22T06:40:16;18.00;99.90
20714;DHT22;10518;50.742;4.226;2023-07-22T06:42:42;18.20;99.90
20714;DHT22;10518;50.742;4.226;2023-07-22T06:45:07;18.10;99.90
20714;DHT22;10518;50.742;4.226;2023-07-22T06:47:33;18.10;99.90
20714;DHT22;10518;50.742;4.226;2023-07-22T06:50:00;18.10;99.90
20714;DHT22;10518;50.742;4.226;2023-07-22T06:52:25;18.20;99.90
20714;DHT22;10518;50.742;4.226;2023-07-22T06:54:51;18.50;99.90
20714;DHT22;10518;50.742;4.226;2023-07-22T06:57:16;18.70;99.90
20714;DHT22;10518;50.742;4.226;2023-07-22T06:59:42;18.90;99.90
20714;DHT22;10518;50.742;4.226;2023-07-22T07:02:08;19.00;99.90
20714;DHT22;10518;50.742;4.226;2023-07-22T07:04:34;19.20;99.90
20714;DHT22;10518;50.742;4.226;2023-07-22T07:06:59;19.30;99.90
20714;DHT22;10518;50.742;4.226;2023-07-22T07:09:25;19.30;99.90
20714;DHT22;10518;50.742;4.226;2023-07-22T07:11:51;19.20;99.90
20714;DHT22;10518;50.742;4.226;2023-07-22T07:14:17;19.10;99.90
20714;DHT22;10518;50.742;4.226;2023-07-22T07:16:43;19.20;99.90
20714;DHT22;10518;50.742;4.226;2023-07-22T07:19:09;19.30;99.90
20714;DHT22;10518;50.742;4.226;2023-07-22T07:21:35;19.70;99.90
20714;DHT22;10518;50.742;4.226;2023-07-22T07:24:01;20.20;99.90
20714;DHT22;10518;50.742;4.226;2023-07-22T07:26:27;20.50;99.90
20714;DHT22;10518;50.742;4.226;2023-07-22T07:28:53;20.60;99.90
20714;DHT22;10518;50.742;4.226;2023-07-22T07:31:19;20.50;99.90
20714;DHT22;10518;50.742;4.226;2023-07-22T07:33:44;20.60;99.90
20714;DHT22;10518;50.742;4.226;2023-07-22T07:36:10;20.50;99.90
20714;DHT22;10518;50.742;4.226;2023-07-22T07:38:35;20.30;99.90
20714;DHT22;10518;50.742;4.226;2023-07-22T07:41:05;20.20;99.90
20714;DHT22;10518;50.742;4.226;2023-07-22T07:43:34;20.40;99.90
20714;DHT22;10518;50.742;4.226;2023-07-22T07:46:16;20.80;99.90
20714;DHT22;10518;50.742;4.226;2023-07-22T07:48:50;20.50;99.90
20714;DHT22;10518;50.742;4.226;2023-07-22T07:51:17;20.20;99.90
20714;DHT22;10518;50.742;4.226;2023-07-22T07:53:44;20.60;99.90
20714;DHT22;10518;50.742;4.226;2023-07-22T07:56:11;21.20;99.90
20714;DHT22;10518;50.742;4.226;2023-07-22T07:58:37;21.40;99.90
20714;DHT22;10518;50.742;4.226;2023-07-22T08:01:03;21.10;99.90
20714;DHT22;10518;50.742;4.226;2023-07-22T08:03:29;21.00;99.90
20714;DHT22;10518;50.742;4.226;2023-07-22T08:05:55;20.90;99.90
20714;DHT22;10518;50.742;4.226;2023-07-22T08:08:21;21.00;99.90
20714;DHT22;10518;50.742;4.226;2023-07-22T08:10:47;21.20;99.90
20714;DHT22;10518;50.742;4.226;2023-07-22T08:13:13;21.20;99.90
20714;DHT22;10518;50.742;4.226;2023-07-22T08:15:39;21.30;99.90
20714;DHT22;10518;50.742;4.226;2023-07-22T08:18:07;21.60;99.90
20714;DHT22;10518;50.742;4.226;2023-07-22T08:20:32;21.80;99.90
20714;DHT22;10518;50.742;4.226;2023-07-22T08:22:58;21.90;99.90
20714;DHT22;10518;50.742;4.226;2023-07-22T08:25:24;21.90;99.90
20714;DHT22;10518;50.742;4.226;2023-07-22T08:27:49;21.80;99.90
20714;DHT22;10518;50.742;4.226;2023-07-22T08:30:15;22.00;99.90
20714;DHT22;10518;50.742;4.226;2023-07-22T08:32:40;22.00;99.90
20714;DHT22;10518;50.742;4.226;2023-07-22T08:35:06;22.20;99.90
20714;DHT22;10518;50.742;4.226;2023-07-22T08:37:32;22.40;99.90
20714;DHT22;10518;50.742;4.226;2023-07-22T08:39:58;22.40;99.90
20714;DHT22;10518;50.742;4.226;2023-07-22T08:42:24;22.50;99.90
20714;DHT22;10518;50.742;4.226;2023-07-22T08:44:53;22.70;99.90
20714;DHT22;10518;50.742;4.226;2023-07-22T08:47:22;23.00;99.90
20714;DHT22;10518;50.742;4.226;2023-07-22T08:49:52;23.30;99.90
20714;DHT22;10518;50.742;4.226;2023-07-22T08:52:22;23.20;99.90
20714;DHT22;10518;50.742;4.226;2023-07-22T08:54:49;23.10;99.90
20714;DHT22;10518;50.742;4.226;2023-07-22T08:57:15;23.30;99.90
20714;DHT22;10518;50.742;4.226;2023-07-22T08:59:41;23.30;99.90
20714;DHT22;10518;50.742;4.226;2023-07-22T09:02:10;23.50;99.90
20714;DHT22;10518;50.742;4.226;2023-07-22T09:04:37;23.50;99.90
20714;DHT22;10518;50.742;4.226;2023-07-22T09:07:03;23.80;99.90
20714;DHT22;10518;50.742;4.226;2023-07-22T09:09:29;23.60;99.90
20714;DHT22;10518;50.742;4.226;2023-07-22T09:11:56;23.50;99.90
20714;DHT22;10518;50.742;4.226;2023-07-22T09:14:23;23.20;99.90
20714;DHT22;10518;50.742;4.226;2023-07-22T09:16:48;23.00;99.90
20714;DHT22;10518;50.742;4.226;2023-07-22T09:19:14;22.90;99.90
20714;DHT22;10518;50.742;4.226;2023-07-22T09:21:39;23.30;99.90
20714;DHT22;10518;50.742;4.226;2023-07-22T09:24:25;23.40;99.90
20714;DHT22;10518;50.742;4.226;2023-07-22T09:26:51;23.50;99.90
20714;DHT22;10518;50.742;4.226;2023-07-22T09:29:17;23.30;99.90
20714;DHT22;10518;50.742;4.226;2023-07-22T09:31:51;23.20;99.90
20714;DHT22;10518;50.742;4.226;2023-07-22T09:34:17;23.50;99.90
20714;DHT22;10518;50.742;4.226;2023-07-22T09:36:57;23.30;99.90
20714;DHT22;10518;50.742;4.226;2023-07-22T09:39:26;23.40;99.90
20714;DHT22;10518;50.742;4.226;2023-07-22T09:41:53;23.40;99.90
20714;DHT22;10518;50.742;4.226;2023-07-22T09:44:18;23.20;99.90
20714;DHT22;10518;50.742;4.226;2023-07-22T09:46:50;23.40;99.90
20714;DHT22;10518;50.742;4.226;2023-07-22T09:49:17;23.30;99.90
20714;DHT22;10518;50.742;4.226;2023-07-22T09:51:43;23.50;99.90
20714;DHT22;10518;50.742;4.226;2023-07-22T09:54:09;23.30;99.90
20714;DHT22;10518;50.742;4.226;2023-07-22T09:56:49;23.70;99.90
20714;DHT22;10518;50.742;4.226;2023-07-22T09:59:18;23.60;99.90
20714;DHT22;10518;50.742;4.226;2023-07-22T10:01:44;23.30;99.90
20714;DHT22;10518;50.742;4.226;2023-07-22T10:04:12;23.00;99.90
20714;DHT22;10518;50.742;4.226;2023-07-22T10:06:42;23.30;99.90
20714;DHT22;10518;50.742;4.226;2023-07-22T10:09:10;23.10;99.90
20714;DHT22;10518;50.742;4.226;2023-07-22T10:11:37;23.30;99.90
20714;DHT22;10518;50.742;4.226;2023-07-22T10:14:03;23.50;99.90
20714;DHT22;10518;50.742;4.226;2023-07-22T10:16:29;23.50;99.90
20714;DHT22;10518;50.742;4.226;2023-07-22T10:18:57;23.60;99.90
20714;DHT22;10518;50.742;4.226;2023-07-22T10:21:24;23.60;99.90
20714;DHT22;10518;50.742;4.226;2023-07-22T10:23:50;23.80;99.90
20714;DHT22;10518;50.742;4.226;2023-07-22T10:26:17;23.80;99.90
20714;DHT22;10518;50.742;4.226;2023-07-22T10:28:44;23.70;99.90
20714;DHT22;10518;50.742;4.226;2023-07-22T10:31:11;23.50;99.90
20714;DHT22;10518;50.742;4.226;2023-07-22T10:33:38;23.70;99.90
20714;DHT22;10518;50.742;4.226;2023-07-22T10:36:06;23.80;99.90
20714;DHT22;10518;50.742;4.226;2023-07-22T10:38:32;23.90;99.90
20714;DHT22;10518;50.742;4.226;2023-07-22T10:40:58;23.90;99.90
20714;DHT22;10518;50.742;4.226;2023-07-22T10:43:26;24.20;99.90
20714;DHT22;10518;50.742;4.226;2023-07-22T10:45:54;24.30;99.90
20714;DHT22;10518;50.742;4.226;2023-07-22T10:48:23;24.30;99.90
20714;DHT22;10518;50.742;4.226;2023-07-22T10:50:55;24.30;99.90
20714;DHT22;10518;50.742;4.226;2023-07-22T11:01:32;24.10;99.90
20714;DHT22;10518;50.742;4.226;2023-07-22T11:04:10;23.70;99.90
20714;DHT22;10518;50.742;4.226;2023-07-22T11:06:38;23.70;99.90
20714;DHT22;10518;50.742;4.226;2023-07-22T11:09:04;23.30;99.90
20714;DHT22;10518;50.742;4.226;2023-07-22T11:11:38;23.30;99.90
20714;DHT22;10518;50.742;4.226;2023-07-22T11:14:17;23.50;99.90
20714;DHT22;10518;50.742;4.226;2023-07-22T11:16:45;23.60;99.90
20714;DHT22;10518;50.742;4.226;2023-07-22T11:19:12;23.30;99.90
20714;DHT22;10518;50.742;4.226;2023-07-22T11:21:37;23.50;99.90
20714;DHT22;10518;50.742;4.226;2023-07-22T11:24:04;23.90;99.90
20714;DHT22;10518;50.742;4.226;2023-07-22T11:26:30;24.00;99.90
20714;DHT22;10518;50.742;4.226;2023-07-22T11:28:57;23.90;99.90
20714;DHT22;10518;50.742;4.226;2023-07-22T11:31:29;24.00;99.90
20714;DHT22;10518;50.742;4.226;2023-07-22T11:33:55;24.10;99.90
20714;DHT22;10518;50.742;4.226;2023-07-22T11:36:20;24.40;99.90
20714;DHT22;10518;50.742;4.226;2023-07-22T11:38:46;24.10;99.90
20714;DHT22;10518;50.742;4.226;2023-07-22T11:41:12;24.00;99.90
20714;DHT22;10518;50.742;4.226;2023-07-22T11:43:37;24.00;99.90
20714;DHT22;10518;50.742;4.226;2023-07-22T11:46:05;24.10;99.90
20714;DHT22;10518;50.742;4.226;2023-07-22T11:48:31;24.40;99.90
20714;DHT22;10518;50.742;4.226;2023-07-22T11:51:00;24.50;99.90
20714;DHT22;10518;50.742;4.226;2023-07-22T11:53:26;24.50;99.90
20714;DHT22;10518;50.742;4.226;2023-07-22T11:55:54;24.10;99.90
20714;DHT22;10518;50.742;4.226;2023-07-22T11:58:26;24.20;99.90
20714;DHT22;10518;50.742;4.226;2023-07-22T12:01:06;24.20;99.90
20714;DHT22;10518;50.742;4.226;2023-07-22T12:03:33;24.20;99.90
20714;DHT22;10518;50.742;4.226;2023-07-22T12:06:03;24.10;99.90
20714;DHT22;10518;50.742;4.226;2023-07-22T12:08:29;24.40;99.90
20714;DHT22;10518;50.742;4.226;2023-07-22T12:10:58;24.40;99.90
20714;DHT22;10518;50.742;4.226;2023-07-22T12:13:24;24.40;99.90
20714;DHT22;10518;50.742;4.226;2023-07-22T12:16:03;24.70;99.90
20714;DHT22;10518;50.742;4.226;2023-07-22T12:18:41;24.70;99.90
20714;DHT22;10518;50.742;4.226;2023-07-22T12:21:07;24.90;99.90
20714;DHT22;10518;50.742;4.226;2023-07-22T12:23:35;24.90;99.90
20714;DHT22;10518;50.742;4.226;2023-07-22T12:26:01;24.80;99.90
20714;DHT22;10518;50.742;4.226;2023-07-22T12:28:26;24.90;99.90
20714;DHT22;10518;50.742;4.226;2023-07-22T12:30:52;25.30;99.90
20714;DHT22;10518;50.742;4.226;2023-07-22T12:33:17;25.00;99.90
20714;DHT22;10518;50.742;4.226;2023-07-22T12:35:43;24.90;99.90
20714;DHT22;10518;50.742;4.226;2023-07-22T12:38:09;24.90;99.90
20714;DHT22;10518;50.742;4.226;2023-07-22T12:40:34;24.70;99.90
20714;DHT22;10518;50.742;4.226;2023-07-22T12:43:00;24.80;99.90
20714;DHT22;10518;50.742;4.226;2023-07-22T12:45:25;25.10;99.90
20714;DHT22;10518;50.742;4.226;2023-07-22T12:47:51;25.10;99.90
20714;DHT22;10518;50.742;4.226;2023-07-22T12:50:17;24.90;99.90
20714;DHT22;10518;50.742;4.226;2023-07-22T12:52:45;24.70;99.90
20714;DHT22;10518;50.742;4.226;2023-07-22T12:55:10;24.60;99.90
20714;DHT22;10518;50.742;4.226;2023-07-22T12:57:36;24.70;99.90
20714;DHT22;10518;50.742;4.226;2023-07-22T13:00:01;25.00;99.90
20714;DHT22;10518;50.742;4.226;2023-07-22T13:02:31;25.10;99.90
20714;DHT22;10518;50.742;4.226;2023-07-22T13:04:56;24.90;99.90
20714;DHT22;10518;50.742;4.226;2023-07-22T13:07:22;25.00;99.90
20714;DHT22;10518;50.742;4.226;2023-07-22T13:09:48;25.00;99.90
20714;DHT22;10518;50.742;4.226;2023-07-22T13:12:15;24.90;99.90
20714;DHT22;10518;50.742;4.226;2023-07-22T13:14:40;24.70;99.90
20714;DHT22;10518;50.742;4.226;2023-07-22T13:17:06;25.00;99.90
20714;DHT22;10518;50.742;4.226;2023-07-22T13:19:32;25.20;99.90
20714;DHT22;10518;50.742;4.226;2023-07-22T13:21:57;25.50;99.90
20714;DHT22;10518;50.742;4.226;2023-07-22T13:24:23;25.60;99.90
20714;DHT22;10518;50.742;4.226;2023-07-22T13:26:48;25.80;99.90
20714;DHT22;10518;50.742;4.226;2023-07-22T13:29:14;25.70;99.90
20714;DHT22;10518;50.742;4.226;2023-07-22T13:31:39;25.80;99.90
20714;DHT22;10518;50.742;4.226;2023-07-22T13:34:05;25.80;99.90
20714;DHT22;10518;50.742;4.226;2023-07-22T13:36:30;25.50;99.90
20714;DHT22;10518;50.742;4.226;2023-07-22T13:38:56;25.00;99.90
20714;DHT22;10518;50.742;4.226;2023-07-22T13:41:21;24.60;99.90
20714;DHT22;10518;50.742;4.226;2023-07-22T13:43:47;24.50;99.90
20714;DHT22;10518;50.742;4.226;2023-07-22T13:46:13;24.20;99.90
20714;DHT22;10518;50.742;4.226;2023-07-22T13:48:38;24.00;99.90
20714;DHT22;10518;50.742;4.226;2023-07-22T13:51:04;23.60;99.90
20714;DHT22;10518;50.742;4.226;2023-07-22T13:53:29;23.60;99.90
20714;DHT22;10518;50.742;4.226;2023-07-22T13:55:55;23.50;99.90
20714;DHT22;10518;50.742;4.226;2023-07-22T13:58:20;23.40;99.90
20714;DHT22;10518;50.742;4.226;2023-07-22T14:00:46;23.20;99.90
20714;DHT22;10518;50.742;4.226;2023-07-22T14:03:11;23.10;99.90
20714;DHT22;10518;50.742;4.226;2023-07-22T14:05:37;22.90;99.90
20714;DHT22;10518;50.742;4.226;2023-07-22T14:08:03;22.90;99.90
20714;DHT22;10518;50.742;4.226;2023-07-22T14:10:28;22.90;99.90
20714;DHT22;10518;50.742;4.226;2023-07-22T14:12:54;22.90;99.90
20714;DHT22;10518;50.742;4.226;2023-07-22T14:15:20;23.00;99.90
20714;DHT22;10518;50.742;4.226;2023-07-22T14:17:45;23.00;99.90
20714;DHT22;10518;50.742;4.226;2023-07-22T14:20:11;23.10;99.90
20714;DHT22;10518;50.742;4.226;2023-07-22T14:22:37;23.20;99.90
20714;DHT22;10518;50.742;4.226;2023-07-22T14:25:03;23.20;99.90
20714;DHT22;10518;50.742;4.226;2023-07-22T14:27:29;23.30;99.90
20714;DHT22;10518;50.742;4.226;2023-07-22T14:29:54;23.30;99.90
20714;DHT22;10518;50.742;4.226;2023-07-22T14:32:20;23.30;99.90
20714;DHT22;10518;50.742;4.226;2023-07-22T14:34:45;23.50;99.90
20714;DHT22;10518;50.742;4.226;2023-07-22T14:37:11;23.60;99.90
20714;DHT22;10518;50.742;4.226;2023-07-22T14:39:36;23.70;99.90
20714;DHT22;10518;50.742;4.226;2023-07-22T14:42:02;23.80;99.90
20714;DHT22;10518;50.742;4.226;2023-07-22T14:44:27;23.90;99.90
20714;DHT22;10518;50.742;4.226;2023-07-22T14:46:53;23.90;99.90
20714;DHT22;10518;50.742;4.226;2023-07-22T14:49:19;23.90;99.90
20714;DHT22;10518;50.742;4.226;2023-07-22T14:51:44;24.00;99.90
20714;DHT22;10518;50.742;4.226;2023-07-22T14:54:10;24.10;99.90
20714;DHT22;10518;50.742;4.226;2023-07-22T14:56:36;24.10;99.90
20714;DHT22;10518;50.742;4.226;2023-07-22T14:59:02;24.10;99.90
20714;DHT22;10518;50.742;4.226;2023-07-22T15:01:36;24.10;99.90
20714;DHT22;10518;50.742;4.226;2023-07-22T15:04:02;24.30;99.90
20714;DHT22;10518;50.742;4.226;2023-07-22T15:06:27;24.50;99.90
20714;DHT22;10518;50.742;4.226;2023-07-22T15:08:53;24.50;99.90
20714;DHT22;10518;50.742;4.226;2023-07-22T15:11:18;24.40;99.90
20714;DHT22;10518;50.742;4.226;2023-07-22T15:13:44;24.20;99.90
20714;DHT22;10518;50.742;4.226;2023-07-22T15:16:09;24.10;99.90
20714;DHT22;10518;50.742;4.226;2023-07-22T15:18:35;23.90;99.90
20714;DHT22;10518;50.742;4.226;2023-07-22T15:21:01;23.90;99.90
20714;DHT22;10518;50.742;4.226;2023-07-22T15:23:26;23.80;99.90
20714;DHT22;10518;50.742;4.226;2023-07-22T15:25:52;23.80;99.90
20714;DHT22;10518;50.742;4.226;2023-07-22T15:28:17;23.70;99.90
20714;DHT22;10518;50.742;4.226;2023-07-22T15:30:43;23.70;99.90
20714;DHT22;10518;50.742;4.226;2023-07-22T15:33:09;23.60;99.90